Time;durP1;ratioP1;P1;durP2;ratioP2;P2;SDS_P1;SDS_P2;PMS_P1;PMS_P2;Temp;Humidity;BMP_temperature;BMP_pressure;BME280_temperature;BME280_humidity;BME280_pressure;Samples;Min_cycle;Max_cycle;Signal;HPM_P1;HPM_P2
2022/08/27 00:01:30;;;;;;;;;3.00;3.00;;;;;20.50;56.99;101038.22;5096593;27;45488;-54
2022/08/27 00:03:56;;;;;;;;;3.33;3.00;;;;;20.45;57.37;101040.50;5090457;27;45440;-51
2022/08/27 00:06:23;;;;;;;;;4.33;4.33;;;;;20.42;57.31;101031.81;5094632;27;45449;-53
2022/08/27 00:08:49;;;;;;;;;5.00;3.00;;;;;20.40;57.64;101034.63;5091916;27;45407;-53
2022/08/27 00:11:17;;;;;;;;;3.00;3.00;;;;;20.44;57.34;101044.16;5093311;27;45869;-53
2022/08/27 00:13:42;;;;;;;;;9.33;6.00;;;;;20.41;57.89;101035.47;5083369;27;45480;-54
2022/08/27 00:16:10;;;;;;;;;3.00;3.00;;;;;20.28;58.29;101030.31;5088592;27;45411;-55
2022/08/27 00:18:37;;;;;;;;;4.00;4.00;;;;;20.19;58.77;101029.31;5092910;27;45295;-54
2022/08/27 00:21:06;;;;;;;;;3.67;2.00;;;;;20.23;58.26;101035.28;5093151;27;46352;-53
2022/08/27 00:23:32;;;;;;;;;4.00;4.00;;;;;20.15;58.39;101027.00;5093645;27;45416;-55
2022/08/27 00:25:58;;;;;;;;;6.67;4.00;;;;;20.21;58.14;101034.56;5092825;27;45703;-55
2022/08/27 00:28:26;;;;;;;;;7.00;5.00;;;;;20.23;58.21;101032.59;5091250;27;45680;-53
2022/08/27 00:30:52;;;;;;;;;3.67;3.67;;;;;20.26;57.81;101032.31;5098277;27;45400;-55
2022/08/27 00:33:17;;;;;;;;;5.00;5.00;;;;;20.18;58.59;101032.13;5083527;27;45609;-53
2022/08/27 00:35:42;;;;;;;;;6.00;4.00;;;;;20.11;58.59;101028.28;5087509;27;45560;-55
2022/08/27 00:38:08;;;;;;;;;5.00;5.00;;;;;20.12;58.58;101038.09;5099577;27;45401;-54
2022/08/27 00:40:33;;;;;;;;;3.00;3.00;;;;;20.10;58.43;101029.28;5097021;27;45316;-55
2022/08/27 00:43:02;;;;;;;;;3.67;3.67;;;;;20.13;58.55;101043.34;5096694;27;45488;-55
2022/08/27 00:45:30;;;;;;;;;3.67;3.67;;;;;20.13;58.24;101032.53;5092573;27;45523;-54
2022/08/27 00:47:59;;;;;;;;;5.00;5.00;;;;;20.12;58.14;101030.84;5091856;27;45470;-54
2022/08/27 00:50:36;;;;;;;;;3.00;3.00;;;;;20.18;58.46;101048.31;5094446;27;46958;-54
2022/08/27 00:53:06;;;;;;;;;3.33;3.33;;;;;20.10;58.34;101031.97;5096738;27;47324;-55
2022/08/27 00:55:41;;;;;;;;;4.33;4.33;;;;;20.12;58.52;101035.38;5094657;27;45562;-54
2022/08/27 00:58:37;;;;;;;;;3.33;3.33;;;;;20.10;58.73;101037.38;5093636;27;45321;-56
2022/08/27 01:01:07;;;;;;;;;4.33;4.00;;;;;20.08;58.72;101032.13;5079101;27;46246;-54
2022/08/27 01:03:34;;;;;;;;;4.67;3.33;;;;;20.07;58.71;101034.97;5095318;27;45182;-53
2022/08/27 01:06:01;;;;;;;;;3.00;3.00;;;;;19.97;59.34;101019.56;5094576;27;45449;-54
2022/08/27 01:08:33;;;;;;;;;3.00;2.00;;;;;19.96;59.46;101030.50;5077871;27;45324;-53
2022/08/27 01:11:00;;;;;;;;;3.67;3.67;;;;;19.87;59.80;101040.25;5086975;27;47182;-53
2022/08/27 01:13:30;;;;;;;;;3.00;3.00;;;;;19.75;59.57;101019.75;5093993;27;45855;-54
2022/08/27 01:15:58;;;;;;;;;3.00;3.00;;;;;19.81;59.61;101032.72;5091562;27;45463;-53
2022/08/27 01:18:30;;;;;;;;;3.00;3.00;;;;;19.79;59.97;101044.59;5079667;27;45527;-55
2022/08/27 01:21:29;;;;;;;;;4.00;4.00;;;;;19.77;59.63;101042.03;5096918;27;45476;-52
2022/08/27 01:24:22;;;;;;;;;4.00;3.00;;;;;19.76;59.82;101034.94;5094375;27;46147;-54
2022/08/27 01:26:48;;;;;;;;;2.67;2.67;;;;;19.78;59.67;101041.06;5078513;27;46075;-55
2022/08/27 01:29:14;;;;;;;;;5.67;3.67;;;;;19.79;60.04;101039.19;5095740;27;45609;-56
2022/08/27 01:31:40;;;;;;;;;4.33;4.33;;;;;19.79;59.95;101033.81;5091430;27;46142;-55
2022/08/27 01:34:06;;;;;;;;;4.00;4.00;;;;;19.83;59.24;101030.72;5098799;27;45668;-51
2022/08/27 01:36:31;;;;;;;;;3.00;3.00;;;;;19.83;59.34;101021.78;5094773;27;45428;-53
2022/08/27 01:38:56;;;;;;;;;3.00;3.00;;;;;19.83;59.84;101032.56;5097007;27;46154;-53
2022/08/27 01:41:23;;;;;;;;;1.00;1.00;;;;;19.79;59.55;101023.00;5092919;27;46488;-54
2022/08/27 01:43:48;;;;;;;;;4.00;4.00;;;;;19.80;59.67;101025.59;5090413;27;45507;-51
2022/08/27 01:46:13;;;;;;;;;3.00;3.00;;;;;19.84;59.50;101024.34;5093888;27;45366;-54
2022/08/27 01:48:39;;;;;;;;;2.67;2.67;;;;;19.83;60.24;101030.72;5096224;27;45448;-50
2022/08/27 01:51:05;;;;;;;;;3.33;2.33;;;;;19.77;59.74;101022.28;5081400;27;45547;-53
2022/08/27 01:53:30;;;;;;;;;3.67;3.67;;;;;19.76;59.83;101024.16;5094701;27;45483;-52
2022/08/27 01:55:56;;;;;;;;;2.33;2.00;;;;;19.80;59.42;101022.91;5091393;27;45385;-52
2022/08/27 01:58:25;;;;;;;;;6.00;4.00;;;;;19.82;59.60;101023.63;5091975;27;45387;-56
2022/08/27 02:00:55;;;;;;;;;6.00;3.00;;;;;19.76;60.12;101016.03;5095864;27;45853;-54
2022/08/27 02:03:21;;;;;;;;;4.00;2.33;;;;;19.74;60.06;101026.13;5087255;27;45538;-53
2022/08/27 02:05:47;;;;;;;;;2.33;2.33;;;;;19.76;59.55;101015.19;5095778;27;45383;-53
2022/08/27 02:08:15;;;;;;;;;4.00;3.00;;;;;19.80;59.72;101020.22;5106649;27;45498;-56
2022/08/27 02:10:42;;;;;;;;;3.00;3.00;;;;;19.82;59.69;101023.63;5109169;27;45730;-56
2022/08/27 02:13:08;;;;;;;;;2.67;2.67;;;;;19.79;59.67;101026.56;5096402;27;45534;-54
2022/08/27 02:15:37;;;;;;;;;3.67;2.67;;;;;19.77;59.95;101025.84;5082944;27;45488;-52
2022/08/27 02:18:04;;;;;;;;;4.00;4.00;;;;;19.79;59.63;101023.00;5091836;27;45496;-55
2022/08/27 02:20:30;;;;;;;;;3.00;3.00;;;;;19.82;59.76;101020.91;5094448;27;45489;-55
2022/08/27 02:22:56;;;;;;;;;2.00;2.00;;;;;19.86;59.31;101016.09;5092921;27;45447;-54
2022/08/27 02:25:22;;;;;;;;;1.67;1.67;;;;;19.87;59.57;101017.81;5095436;27;45406;-54
2022/08/27 02:27:48;;;;;;;;;4.67;3.67;;;;;19.81;59.70;101019.22;5089251;27;45543;-54
2022/08/27 02:30:19;;;;;;;;;3.33;3.33;;;;;19.79;59.47;101018.47;5090173;27;46353;-56
2022/08/27 02:32:46;;;;;;;;;2.67;2.67;;;;;19.80;59.71;101014.81;5093141;27;45874;-52
2022/08/27 02:35:16;;;;;;;;;3.00;2.00;;;;;19.81;59.55;101021.91;5083837;27;45439;-52
2022/08/27 02:37:43;;;;;;;;;3.67;2.33;;;;;19.81;59.61;101029.16;5085876;27;45576;-51
2022/08/27 02:40:15;;;;;;;;;5.00;3.00;;;;;19.82;59.59;101023.63;5094599;27;46155;-52
2022/08/27 02:42:41;;;;;;;;;5.00;3.00;;;;;19.84;59.52;101018.94;5094178;27;45525;-50
2022/08/27 02:45:07;;;;;;;;;4.00;3.00;;;;;19.86;59.53;101016.94;5093078;27;45447;-55
2022/08/27 02:47:34;;;;;;;;;3.00;3.00;;;;;19.82;59.62;101015.53;5093838;27;45217;-54
2022/08/27 02:49:59;;;;;;;;;3.00;3.00;;;;;19.84;59.65;101018.09;5079812;27;46298;-52
2022/08/27 02:52:26;;;;;;;;;2.00;2.00;;;;;19.83;59.42;101014.53;5093997;27;45519;-53
2022/08/27 02:54:52;;;;;;;;;3.00;3.00;;;;;19.77;59.82;101020.44;5081213;27;45349;-55
2022/08/27 02:57:17;;;;;;;;;3.33;3.33;;;;;19.71;59.86;101010.22;5093627;27;45423;-52
2022/08/27 02:59:42;;;;;;;;;3.00;3.00;;;;;19.69;60.13;101015.75;5092904;27;45675;-51
2022/08/27 03:02:09;;;;;;;;;4.33;3.00;;;;;19.65;60.24;101010.72;5087586;27;45376;-54
2022/08/27 03:04:34;;;;;;;;;4.67;2.67;;;;;19.65;60.07;101018.81;5060078;27;45858;-54
2022/08/27 03:07:00;;;;;;;;;3.33;2.00;;;;;19.63;60.48;101010.00;5085345;27;45592;-56
2022/08/27 03:09:25;;;;;;;;;3.00;3.00;;;;;19.60;59.84;101003.06;5088102;27;45972;-53
2022/08/27 03:11:51;;;;;;;;;3.33;3.33;;;;;19.60;60.20;101007.59;5090365;27;45462;-55
2022/08/27 03:14:16;;;;;;;;;3.00;3.00;;;;;19.58;60.26;101009.56;5093141;27;45296;-53
2022/08/27 03:16:42;;;;;;;;;4.33;4.00;;;;;19.56;60.30;101008.84;5091228;27;45297;-53
2022/08/27 03:19:07;;;;;;;;;2.00;2.00;;;;;19.55;60.51;101002.59;5094024;27;45333;-54
2022/08/27 03:21:35;;;;;;;;;2.00;2.00;;;;;19.47;60.27;100996.97;5094137;27;45289;-55
2022/08/27 03:24:03;;;;;;;;;2.67;2.67;;;;;19.44;60.53;101002.66;5095525;27;45358;-52
2022/08/27 03:26:30;;;;;;;;;3.00;3.00;;;;;19.36;61.07;101008.69;5088378;27;45595;-51
2022/08/27 03:28:56;;;;;;;;;5.00;3.67;;;;;19.36;60.82;100999.75;5088261;27;45737;-52
2022/08/27 03:31:26;;;;;;;;;0.00;0.00;;;;;19.34;60.97;101002.59;5081450;27;45550;-50
2022/08/27 03:33:57;;;;;;;;;3.00;3.00;;;;;19.32;60.51;100998.31;5093747;27;45490;-51
2022/08/27 03:36:24;;;;;;;;;3.67;2.00;;;;;19.24;60.68;100990.88;5092868;27;45417;-55
2022/08/27 03:38:49;;;;;;;;;5.67;3.00;;;;;19.24;61.28;101001.66;5094465;27;45428;-56
2022/08/27 03:41:16;;;;;;;;;5.00;4.00;;;;;19.17;61.64;101000.50;5093948;27;45478;-55
2022/08/27 03:43:42;;;;;;;;;3.00;3.00;;;;;19.18;61.43;100996.81;5091665;27;45564;-53
2022/08/27 03:46:07;;;;;;;;;5.33;3.00;;;;;19.07;61.84;100994.16;5091037;27;45637;-55
2022/08/27 03:48:34;;;;;;;;;3.67;3.67;;;;;19.03;61.75;100987.34;5093597;27;45403;-54
2022/08/27 03:51:08;;;;;;;;;4.00;4.00;;;;;19.04;61.67;100995.28;5093169;27;45421;-55
2022/08/27 03:53:36;;;;;;;;;3.00;3.00;;;;;19.03;61.32;100998.97;5090250;27;45420;-54
2022/08/27 03:56:03;;;;;;;;;3.33;3.33;;;;;19.05;61.50;100993.44;5093240;27;45583;-56
2022/08/27 03:58:29;;;;;;;;;6.67;3.00;;;;;18.95;62.26;100981.72;5093246;27;45475;-56
2022/08/27 04:00:54;;;;;;;;;4.00;4.00;;;;;18.98;62.14;101001.19;5090944;27;45476;-56
2022/08/27 04:03:20;;;;;;;;;4.67;3.67;;;;;18.98;61.88;100987.72;5084060;27;45669;-53
2022/08/27 04:05:51;;;;;;;;;3.67;3.00;;;;;18.95;62.02;100995.22;5088734;27;45494;-54
2022/08/27 04:08:16;;;;;;;;;3.67;3.00;;;;;18.90;62.20;100992.91;5096801;27;45362;-54
2022/08/27 04:10:42;;;;;;;;;5.33;3.67;;;;;18.84;62.44;100994.28;5110895;27;45293;-56
2022/08/27 04:13:07;;;;;;;;;4.67;4.67;;;;;18.75;62.44;100989.69;5093955;27;45478;-55
2022/08/27 04:15:33;;;;;;;;;4.67;4.67;;;;;18.68;63.09;101001.94;5088016;27;45948;-60
2022/08/27 04:17:58;;;;;;;;;3.00;3.00;;;;;18.66;62.93;100993.13;5093751;27;45905;-52
2022/08/27 04:20:24;;;;;;;;;5.67;4.00;;;;;18.65;62.78;100993.25;5093566;27;45719;-52
2022/08/27 04:22:49;;;;;;;;;4.00;4.00;;;;;18.68;62.73;100990.31;5094106;27;45445;-53
2022/08/27 04:25:14;;;;;;;;;4.33;4.33;;;;;18.65;62.68;100994.13;5089328;27;45741;-51
2022/08/27 04:27:40;;;;;;;;;4.00;4.00;;;;;18.67;62.90;100996.69;5099473;27;45821;-52
2022/08/27 04:30:08;;;;;;;;;5.33;5.33;;;;;18.64;62.72;100986.16;5092878;27;45360;-55
2022/08/27 04:32:34;;;;;;;;;3.00;3.00;;;;;18.68;63.16;100988.47;5096788;27;45582;-53
2022/08/27 04:35:00;;;;;;;;;4.33;3.33;;;;;18.64;62.86;100987.03;5097677;27;45661;-56
2022/08/27 04:37:29;;;;;;;;;4.00;4.00;;;;;18.59;63.03;100983.81;5097993;27;46092;-53
2022/08/27 04:39:55;;;;;;;;;4.33;3.67;;;;;18.52;63.32;100982.63;5094151;27;45313;-53
2022/08/27 04:42:20;;;;;;;;;6.67;4.00;;;;;18.44;63.80;100990.47;5097306;27;45456;-56
2022/08/27 04:44:47;;;;;;;;;4.33;3.67;;;;;18.39;63.89;100990.00;5097631;27;45375;-54
2022/08/27 04:47:13;;;;;;;;;4.33;4.33;;;;;18.32;64.26;100996.88;5092328;27;46045;-52
2022/08/27 04:49:39;;;;;;;;;3.00;3.00;;;;;18.25;64.03;100985.75;5111640;27;45345;-55
2022/08/27 04:52:05;;;;;;;;;5.67;4.00;;;;;18.33;63.82;100990.50;5097990;27;45278;-54
2022/08/27 04:54:32;;;;;;;;;6.67;5.00;;;;;18.34;63.81;100989.50;5094757;27;45423;-54
2022/08/27 04:56:57;;;;;;;;;4.00;4.00;;;;;18.42;63.67;100987.91;5084562;27;46586;-53
2022/08/27 04:59:22;;;;;;;;;5.00;3.00;;;;;18.43;63.15;100983.38;5093516;27;45381;-55
2022/08/27 05:01:48;;;;;;;;;4.00;4.00;;;;;18.38;63.70;100977.53;5096345;27;45330;-54
2022/08/27 05:04:17;;;;;;;;;4.00;4.00;;;;;18.41;63.63;100974.56;5093146;27;45556;-54
2022/08/27 05:06:44;;;;;;;;;4.33;4.33;;;;;18.39;63.20;100976.53;5094462;27;46972;-55
2022/08/27 05:09:12;;;;;;;;;5.00;5.00;;;;;18.30;63.78;100977.28;5095030;27;45260;-54
2022/08/27 05:11:37;;;;;;;;;4.00;4.00;;;;;18.32;63.50;100984.25;5097329;27;45240;-55
2022/08/27 05:14:08;;;;;;;;;4.00;4.00;;;;;18.34;63.37;100984.13;5097728;27;45241;-60
2022/08/27 05:16:36;;;;;;;;;4.00;4.00;;;;;18.39;63.35;100992.69;5094297;27;45478;-53
2022/08/27 05:19:05;;;;;;;;;5.00;5.00;;;;;18.36;63.06;100996.50;5093868;27;45361;-53
2022/08/27 05:21:32;;;;;;;;;6.00;5.00;;;;;18.39;63.24;101000.78;5094635;27;45388;-60
2022/08/27 05:24:00;;;;;;;;;7.00;5.00;;;;;18.34;63.67;101006.53;5099061;27;45542;-52
2022/08/27 05:26:27;;;;;;;;;5.33;5.33;;;;;18.24;63.83;101010.97;5090202;27;45662;-54
2022/08/27 05:28:53;;;;;;;;;6.00;6.00;;;;;18.26;63.64;101012.56;5091863;27;45573;-56
2022/08/27 05:31:19;;;;;;;;;8.00;4.00;;;;;18.37;63.26;101021.59;5091907;27;45440;-54
2022/08/27 05:33:46;;;;;;;;;6.00;4.33;;;;;18.43;62.96;101023.78;5095474;27;45657;-56
2022/08/27 05:36:20;;;;;;;;;3.67;3.67;;;;;18.48;62.50;101030.47;5096218;27;46142;-54
2022/08/27 05:38:50;;;;;;;;;8.33;6.00;;;;;18.54;62.86;101018.38;5096641;27;45558;-55
2022/08/27 05:41:18;;;;;;;;;6.00;3.00;;;;;18.57;62.81;101026.19;5097457;27;45317;-55
2022/08/27 05:43:45;;;;;;;;;9.33;4.00;;;;;18.62;62.67;101015.91;5092547;27;45668;-53
2022/08/27 05:46:14;;;;;;;;;6.67;6.67;;;;;18.66;62.31;101020.06;5095051;27;45410;-54
2022/08/27 05:48:40;;;;;;;;;4.00;4.00;;;;;18.66;62.38;101017.38;5092905;27;45347;-54
2022/08/27 05:51:19;;;;;;;;;4.00;4.00;;;;;18.68;62.18;101020.78;5123409;27;45495;-54
2022/08/27 05:53:45;;;;;;;;;4.00;4.00;;;;;18.70;62.32;101018.81;5094336;27;45501;-52
2022/08/27 05:56:17;;;;;;;;;6.00;6.00;;;;;18.74;62.20;101020.28;5090703;27;45612;-54
2022/08/27 06:01:29;;;;;;;;;5.33;5.00;;;;;18.73;62.12;101010.47;5090241;27;45496;-49
2022/08/27 06:03:55;;;;;;;;;6.33;4.67;;;;;18.71;62.00;101008.91;5103215;27;45473;-53
2022/08/27 06:06:21;;;;;;;;;4.67;4.67;;;;;18.74;62.20;101014.03;5089390;27;45728;-52
2022/08/27 06:08:47;;;;;;;;;6.00;5.00;;;;;18.68;62.38;101012.72;5092023;27;45591;-52
2022/08/27 06:11:13;;;;;;;;;1.67;1.67;;;;;18.62;62.37;101009.63;5095027;27;45480;-51
2022/08/27 06:13:39;;;;;;;;;6.67;6.00;;;;;18.55;62.67;101009.28;5097484;27;45304;-54
2022/08/27 06:16:07;;;;;;;;;8.00;6.00;;;;;18.54;62.76;101011.13;5094026;27;45463;-52
2022/08/27 06:18:34;;;;;;;;;9.67;7.00;;;;;18.48;62.82;101008.06;5091460;27;46944;-50
2022/08/27 06:21:00;;;;;;;;;5.33;5.33;;;;;18.42;63.12;101019.38;5085096;27;45397;-54
2022/08/27 06:23:27;;;;;;;;;6.00;6.00;;;;;18.36;63.01;101009.97;5097416;27;45504;-53
2022/08/27 06:25:53;;;;;;;;;5.00;5.00;;;;;18.44;62.96;101022.78;5102313;27;48287;-55
2022/08/27 06:28:20;;;;;;;;;5.00;5.00;;;;;18.46;62.86;101010.91;5094191;27;45451;-54
2022/08/27 06:30:46;;;;;;;;;8.67;5.00;;;;;18.48;62.57;101018.84;5093636;27;45855;-57
2022/08/27 06:33:11;;;;;;;;;5.00;4.33;;;;;18.49;62.88;101025.94;5094655;27;45499;-54
2022/08/27 06:35:37;;;;;;;;;7.00;7.00;;;;;18.51;62.75;101035.63;5094900;27;45527;-53
2022/08/27 06:38:02;;;;;;;;;8.00;6.00;;;;;18.52;62.54;101031.97;5091037;27;45253;-54
2022/08/27 06:40:28;;;;;;;;;5.00;5.00;;;;;18.47;62.51;101014.44;5094693;27;45516;-55
2022/08/27 06:42:53;;;;;;;;;5.00;5.00;;;;;18.59;62.41;101029.59;5095408;27;45756;-53
2022/08/27 06:45:19;;;;;;;;;6.67;6.67;;;;;18.57;62.75;101020.78;5094177;27;45414;-53
2022/08/27 06:47:45;;;;;;;;;9.00;8.00;;;;;18.66;62.44;101038.06;5089781;27;45516;-52
2022/08/27 06:50:10;;;;;;;;;8.00;6.67;;;;;18.68;62.69;101036.97;5092413;27;45348;-52
2022/08/27 06:52:36;;;;;;;;;6.00;6.00;;;;;18.70;62.38;101024.22;5096352;27;45556;-50
2022/08/27 06:55:02;;;;;;;;;7.00;7.00;;;;;18.73;62.53;101029.34;5095497;27;47654;-49
2022/08/27 06:57:27;;;;;;;;;6.00;6.00;;;;;18.74;62.10;101041.81;5097447;27;45396;-51
2022/08/27 06:59:52;;;;;;;;;5.67;5.00;;;;;18.74;62.19;101036.44;5113067;27;45438;-52
2022/08/27 07:02:18;;;;;;;;;4.33;2.67;;;;;18.70;62.21;101039.53;5096001;27;45562;-52
2022/08/27 07:04:43;;;;;;;;;9.00;7.00;;;;;18.67;62.56;101040.66;5098153;27;46124;-52
2022/08/27 07:07:11;;;;;;;;;5.00;5.00;;;;;18.73;62.58;101048.19;5085277;27;45344;-54
2022/08/27 07:09:37;;;;;;;;;6.67;5.67;;;;;18.81;62.13;101047.56;5090735;27;45299;-54
2022/08/27 07:12:03;;;;;;;;;8.00;5.00;;;;;18.82;61.91;101043.91;5091495;27;45312;-53
2022/08/27 07:14:29;;;;;;;;;9.33;6.00;;;;;18.88;61.85;101042.50;5100180;27;46354;-58
2022/08/27 07:16:55;;;;;;;;;3.67;3.00;;;;;18.91;61.85;101045.84;5099837;27;45354;-54
2022/08/27 07:19:20;;;;;;;;;9.00;6.00;;;;;18.95;61.61;101039.19;5096117;27;45243;-56
2022/08/27 07:21:45;;;;;;;;;10.67;10.67;;;;;19.03;61.60;101046.66;5099375;27;45491;-51
2022/08/27 07:24:11;;;;;;;;;7.67;7.67;;;;;19.08;61.55;101042.56;5113747;27;46642;-54
2022/08/27 07:26:41;;;;;;;;;6.67;6.33;;;;;19.15;61.43;101040.22;5092572;27;46301;-54
2022/08/27 07:29:09;;;;;;;;;7.00;6.67;;;;;19.21;61.24;101050.47;5090958;27;45572;-54
2022/08/27 07:31:34;;;;;;;;;8.00;6.00;;;;;19.20;61.23;101053.28;5092886;27;45693;-54
2022/08/27 07:34:04;;;;;;;;;4.67;3.33;;;;;19.15;61.69;101042.91;5096003;27;45315;-49
2022/08/27 07:36:30;;;;;;;;;10.00;8.67;;;;;19.14;61.43;101043.88;5071663;27;45461;-52
2022/08/27 07:38:56;;;;;;;;;12.00;9.00;;;;;19.27;61.37;101049.97;5098240;27;45371;-55
2022/08/27 07:41:22;;;;;;;;;8.33;8.00;;;;;19.34;61.49;101048.44;5097726;27;44790;-55
2022/08/27 07:46:31;;;;;;;;;6.67;6.67;;;;;19.42;61.50;101055.88;5080121;27;45367;-56
2022/08/27 07:48:58;;;;;;;;;8.67;7.67;;;;;19.48;61.31;101049.09;5082726;27;45466;-58
2022/08/27 07:51:26;;;;;;;;;8.33;8.33;;;;;19.54;61.09;101048.56;5079766;27;45562;-58
2022/08/27 07:53:53;;;;;;;;;9.67;9.67;;;;;19.62;60.89;101059.56;5083493;27;46158;-54
2022/08/27 07:56:18;;;;;;;;;8.00;8.00;;;;;19.72;60.85;101055.09;5098182;27;45404;-54
2022/08/27 07:58:44;;;;;;;;;7.00;7.00;;;;;19.76;60.68;101050.28;5099016;27;45338;-52
2022/08/27 08:01:09;;;;;;;;;6.00;5.67;;;;;19.86;60.49;101057.44;5115665;27;45395;-53
2022/08/27 08:03:35;;;;;;;;;8.67;7.33;;;;;19.92;59.82;101056.91;5099808;27;46752;-56
2022/08/27 08:06:04;;;;;;;;;11.33;8.33;;;;;19.99;60.16;101054.53;5099168;27;45944;-51
2022/08/27 08:08:30;;;;;;;;;9.00;8.00;;;;;20.09;59.74;101057.28;5097353;27;45332;-49
2022/08/27 08:10:57;;;;;;;;;10.67;9.00;;;;;20.09;59.60;101057.28;5093109;27;45464;-53
2022/08/27 08:13:23;;;;;;;;;8.33;8.00;;;;;20.15;59.46;101057.56;5096273;27;47009;-50
2022/08/27 08:15:49;;;;;;;;;8.00;8.00;;;;;20.14;59.54;101044.19;5097872;27;45922;-54
2022/08/27 08:18:15;;;;;;;;;8.33;7.00;;;;;20.16;59.28;101040.38;5095004;27;45398;-53
2022/08/27 08:20:40;;;;;;;;;7.33;7.33;;;;;20.25;58.86;101057.59;5133869;27;45447;-56
2022/08/27 08:23:06;;;;;;;;;6.00;6.00;;;;;20.34;58.91;101067.59;5114141;27;46093;-54
2022/08/27 08:25:32;;;;;;;;;10.33;8.00;;;;;20.32;58.89;101050.69;5099136;27;45328;-58
2022/08/27 08:27:59;;;;;;;;;9.00;6.00;;;;;20.42;58.53;101059.66;5099373;27;45376;-56
2022/08/27 08:30:25;;;;;;;;;11.00;10.00;;;;;20.51;57.73;101064.25;5095016;27;45369;-54
2022/08/27 08:32:51;;;;;;;;;8.33;8.33;;;;;20.58;57.78;101065.41;5118557;27;45241;-56
2022/08/27 08:35:16;;;;;;;;;6.67;6.67;;;;;20.67;57.79;101065.56;5109171;27;45623;-57
2022/08/27 08:37:44;;;;;;;;;6.33;6.33;;;;;20.87;57.86;101061.91;5078796;27;45500;-58
2022/08/27 08:40:17;;;;;;;;;6.00;6.00;;;;;21.25;56.49;101062.91;5088625;27;45539;-55
2022/08/27 08:42:49;;;;;;;;;7.33;6.33;;;;;21.62;54.68;101055.78;5087246;27;45957;-52
2022/08/27 08:45:23;;;;;;;;;6.33;6.33;;;;;22.00;54.56;101054.75;5097315;27;45394;-57
2022/08/27 08:47:55;;;;;;;;;5.00;5.00;;;;;22.39;53.27;101054.63;5087833;27;45493;-57
2022/08/27 08:50:37;;;;;;;;;5.33;4.33;;;;;22.76;50.63;101050.97;5106376;27;45338;-58
2022/08/27 08:53:18;;;;;;;;;6.00;6.00;;;;;23.14;50.96;101052.56;5102175;27;46312;-55
2022/08/27 08:55:50;;;;;;;;;9.00;8.00;;;;;23.41;48.64;101057.00;5091998;27;45484;-56
2022/08/27 08:58:37;;;;;;;;;6.00;6.00;;;;;23.48;48.77;101053.53;5097354;27;45534;-57
2022/08/27 09:01:06;;;;;;;;;5.75;5.75;;;;;23.69;47.42;101049.59;5099790;27;45340;-56
2022/08/27 09:03:35;;;;;;;;;6.00;6.00;;;;;23.90;47.72;101060.09;5112510;27;47141;-56
2022/08/27 09:06:07;;;;;;;;;5.75;5.75;;;;;24.25;46.17;101051.81;5095693;27;45339;-54
2022/08/27 09:08:39;;;;;;;;;7.75;6.75;;;;;24.50;45.11;101044.63;5105045;27;45457;-63
2022/08/27 09:11:26;;;;;;;;;6.75;4.25;;;;;24.71;44.48;101046.88;5098211;27;45409;-59
2022/08/27 09:13:59;;;;;;;;;3.75;3.75;;;;;24.95;44.81;101048.78;5089564;27;46149;-57
2022/08/27 09:16:25;;;;;;;;;6.75;6.75;;;;;25.16;45.09;101051.91;5087318;27;45560;-55
2022/08/27 09:18:53;;;;;;;;;9.00;9.00;;;;;25.29;44.67;101057.69;5094091;27;45286;-57
2022/08/27 09:21:49;;;;;;;;;10.50;6.75;;;;;25.58;44.03;101056.31;5086681;27;45565;-57
2022/08/27 09:24:46;;;;;;;;;5.50;4.50;;;;;25.94;44.37;101043.16;5097055;27;45912;-57
2022/08/27 09:27:13;;;;;;;;;3.75;3.75;;;;;26.16;42.82;101042.38;5021453;27;45667;-56
2022/08/27 09:29:47;;;;;;;;;6.50;5.25;;;;;26.37;42.93;101041.81;5077495;27;45466;-56
2022/08/27 09:32:13;;;;;;;;;4.50;4.50;;;;;26.59;40.49;101044.78;5080932;27;45400;-58
2022/08/27 09:34:41;;;;;;;;;6.00;4.50;;;;;26.72;42.79;101050.50;5098858;27;45859;-58
2022/08/27 09:37:14;;;;;;;;;5.00;5.00;;;;;26.88;41.99;101050.38;5095378;27;45452;-57
2022/08/27 09:39:39;;;;;;;;;5.50;4.50;;;;;26.98;39.69;101051.00;5098956;27;45229;-58
2022/08/27 09:42:06;;;;;;;;;4.00;3.00;;;;;27.02;40.60;101049.63;5095909;27;45572;-54
2022/08/27 09:44:31;;;;;;;;;3.00;3.00;;;;;27.30;39.53;101038.13;5095494;27;45673;-59
2022/08/27 09:47:02;;;;;;;;;4.25;4.25;;;;;27.50;38.73;101050.25;5096290;27;45425;-58
2022/08/27 09:49:29;;;;;;;;;8.60;6.80;;;;;27.71;36.92;101051.44;5094420;27;45472;-57
2022/08/27 09:51:55;;;;;;;;;7.00;7.00;;;;;27.86;37.27;101052.28;5094343;27;45651;-60
2022/08/27 09:54:43;;;;;;;;;4.40;4.00;;;;;27.83;37.41;101037.13;5096883;27;46016;-56
2022/08/27 09:57:11;;;;;;;;;4.60;4.60;;;;;27.92;37.84;101048.81;5093903;27;45592;-59
2022/08/27 09:59:50;;;;;;;;;5.80;4.80;;;;;27.89;38.75;101043.75;5096373;27;45520;-58
2022/08/27 10:02:19;;;;;;;;;3.60;3.60;;;;;27.72;38.91;101036.75;5093586;27;45493;-59
2022/08/27 10:04:53;;;;;;;;;5.40;4.00;;;;;27.76;39.08;101054.47;5096315;27;47135;-61
2022/08/27 10:07:34;;;;;;;;;4.80;3.60;;;;;27.62;39.47;101037.00;5096352;27;45371;-58
2022/08/27 10:10:16;;;;;;;;;5.20;3.80;;;;;27.40;38.01;101036.00;5095261;27;45326;-56
2022/08/27 10:13:04;;;;;;;;;5.50;4.00;;;;;27.37;39.24;101046.47;5098326;27;45242;-58
2022/08/27 10:15:56;;;;;;;;;5.00;5.00;;;;;27.20;37.24;101043.00;5095133;27;46344;-58
2022/08/27 10:18:30;;;;;;;;;5.00;5.00;;;;;26.87;38.59;101050.56;5084006;27;45341;-58
2022/08/27 10:21:06;;;;;;;;;6.00;3.60;;;;;26.55;39.42;101059.78;5085011;27;45443;-61
2022/08/27 10:23:46;;;;;;;;;4.20;4.20;;;;;26.40;39.46;101046.91;5098250;27;45592;-57
2022/08/27 10:26:23;;;;;;;;;6.60;4.00;;;;;26.29;40.08;101047.25;5097363;27;45577;-56
2022/08/27 10:28:48;;;;;;;;;7.40;7.40;;;;;26.15;38.88;101048.00;5076648;27;45407;-56
2022/08/27 10:31:31;;;;;;;;;3.50;3.50;;;;;26.00;39.28;101038.88;5093051;27;45349;-54
2022/08/27 10:34:15;;;;;;;;;7.75;6.50;;;;;25.86;39.85;101049.47;5076716;27;46785;-57
2022/08/27 10:37:06;;;;;;;;;2.50;2.50;;;;;25.72;39.23;101041.16;5083398;27;46013;-63
2022/08/27 10:39:52;;;;;;;;;5.00;5.00;;;;;25.61;39.15;101045.06;5088281;27;45476;-66
2022/08/27 10:42:17;;;;;;;;;4.20;4.20;;;;;25.47;38.67;101041.16;5099974;27;45430;-63
2022/08/27 10:44:52;;;;;;;;;4.50;3.50;;;;;25.27;39.80;101043.41;5102824;27;45290;-67
2022/08/27 10:47:23;;;;;;;;;6.80;5.80;;;;;25.26;38.95;101036.25;5098049;27;46250;-61
2022/08/27 10:50:24;;;;;;;;;3.60;3.60;;;;;25.17;39.49;101029.09;5116283;27;45780;-58
2022/08/27 10:52:59;;;;;;;;;4.00;4.00;;;;;25.30;38.92;101034.03;5094718;27;45711;-62
2022/08/27 10:55:31;;;;;;;;;6.50;5.00;;;;;25.29;39.19;101029.63;5091939;27;45764;-58
2022/08/27 10:58:08;;;;;;;;;3.75;3.75;;;;;25.28;37.66;101028.75;5085122;27;46290;-63
2022/08/27 11:00:56;;;;;;;;;2.40;2.40;;;;;25.28;37.15;101033.38;5095568;27;45786;-58
2022/08/27 11:03:50;;;;;;;;;6.00;6.00;;;;;25.36;37.72;101019.72;5089001;27;45495;-58
2022/08/27 11:06:40;;;;;;;;;4.00;4.00;;;;;25.45;38.66;101017.84;5088694;27;45590;-59
2022/08/27 11:09:11;;;;;;;;;4.25;4.25;;;;;25.65;38.78;101012.88;5078882;27;45326;-57
2022/08/27 11:11:48;;;;;;;;;3.80;3.80;;;;;25.66;38.53;101011.88;5089104;27;45689;-59
2022/08/27 11:14:40;;;;;;;;;6.40;4.20;;;;;25.69;38.88;101019.72;5090026;27;45553;-61
2022/08/27 11:17:19;;;;;;;;;7.00;4.75;;;;;25.77;37.38;101016.94;5082885;27;45176;-63
2022/08/27 11:20:10;;;;;;;;;6.00;6.00;;;;;25.85;38.23;101009.63;5097322;27;45425;-58
2022/08/27 11:22:47;;;;;;;;;6.40;3.40;;;;;25.86;37.76;101016.75;5083173;27;45563;-63
2022/08/27 11:25:20;;;;;;;;;4.25;4.25;;;;;25.70;38.07;101015.97;5092504;27;45446;-57
2022/08/27 11:27:47;;;;;;;;;6.25;4.00;;;;;25.77;37.85;101003.34;5094156;27;45685;-58
2022/08/27 11:30:31;;;;;;;;;5.40;3.80;;;;;25.75;37.67;100997.22;5082655;27;45941;-58
2022/08/27 11:33:02;;;;;;;;;9.20;7.40;;;;;25.83;37.82;100991.75;5094359;27;45472;-61
2022/08/27 11:35:41;;;;;;;;;16.00;13.00;;;;;25.80;36.34;100984.78;5093875;27;45358;-62
2022/08/27 11:38:28;;;;;;;;;8.00;6.25;;;;;25.97;37.51;100992.88;5095624;27;45214;-59
2022/08/27 11:41:15;;;;;;;;;5.00;3.00;;;;;25.86;36.11;100992.25;5105159;27;45464;-56